createdAt,value
2022-08-05T00:00:19.615Z,20.81
2022-08-05T00:02:51.662Z,20.81
2022-08-05T00:06:03.006Z,20.84
2022-08-05T00:08:32.710Z,20.76
2022-08-05T00:10:56.292Z,20.68
2022-08-05T00:13:38.101Z,20.64
2022-08-05T00:16:12.590Z,20.64
2022-08-05T00:18:42.344Z,20.62
2022-08-05T00:21:09.399Z,20.76
2022-08-05T00:23:46.142Z,20.78
2022-08-05T00:26:20.642Z,20.69
2022-08-05T00:28:47.136Z,20.72
2022-08-05T00:31:15.889Z,20.71
2022-08-05T00:34:55.494Z,20.67
2022-08-05T00:37:11.542Z,20.68
2022-08-05T00:39:15.559Z,20.62
2022-08-05T00:41:55.252Z,20.58
2022-08-05T00:44:30.720Z,20.58
2022-08-05T00:47:03.771Z,20.57
2022-08-05T00:49:44.746Z,20.57
2022-08-05T00:52:18.394Z,20.61
2022-08-05T00:54:55.011Z,20.60
2022-08-05T00:57:25.157Z,20.51
2022-08-05T00:59:58.166Z,20.48
2022-08-05T01:02:24.762Z,20.36
2022-08-05T01:04:51.305Z,20.47
2022-08-05T01:07:18.103Z,20.46
2022-08-05T01:09:44.943Z,20.40
2022-08-05T01:12:18.749Z,20.38
2022-08-05T01:14:55.795Z,20.41
2022-08-05T01:17:31.253Z,20.42
2022-08-05T01:20:13.721Z,20.35
2022-08-05T01:22:51.382Z,20.28
2022-08-05T01:25:53.242Z,20.29
2022-08-05T01:28:27.992Z,20.25
2022-08-05T01:31:34.299Z,20.30
2022-08-05T01:34:26.724Z,20.24
2022-08-05T01:37:00.707Z,20.20
2022-08-05T01:39:34.605Z,20.33
2022-08-05T01:42:16.419Z,20.32
2022-08-05T01:44:45.794Z,20.22
2022-08-05T01:47:22.119Z,20.23
2022-08-05T01:50:01.390Z,20.28
2022-08-05T01:52:32.584Z,20.27
2022-08-05T01:55:06.760Z,20.27
2022-08-05T01:58:29.496Z,20.31
2022-08-05T02:00:30.730Z,20.32
2022-08-05T02:03:06.623Z,20.23
2022-08-05T02:05:44.838Z,20.26
2022-08-05T02:08:15.025Z,20.24
2022-08-05T02:11:02.555Z,20.09
2022-08-05T02:13:53.254Z,20.03
2022-08-05T02:16:29.081Z,20.02
2022-08-05T02:19:14.072Z,19.96
2022-08-05T02:21:46.787Z,20.03
2022-08-05T02:24:23.405Z,20.01
2022-08-05T02:26:54.904Z,20.05
2022-08-05T02:29:26.158Z,20.07
2022-08-05T02:32:12.994Z,20.00
2022-08-05T02:34:54.711Z,20.03
2022-08-05T02:37:23.213Z,19.99
2022-08-05T02:39:51.516Z,20.00
2022-08-05T02:42:25.729Z,19.94
2022-08-05T02:44:53.206Z,19.93
2022-08-05T02:47:21.638Z,19.92
2022-08-05T02:49:49.050Z,19.92
2022-08-05T02:52:30.167Z,19.94
2022-08-05T02:54:58.702Z,19.89
2022-08-05T02:58:11.605Z,19.89
2022-08-05T03:00:17.265Z,19.83
2022-08-05T03:02:47.651Z,19.72
2022-08-05T03:05:15.562Z,19.75
2022-08-05T03:08:01.263Z,19.70
2022-08-05T03:10:29.885Z,19.67
2022-08-05T03:15:23.422Z,19.62
2022-08-05T03:17:54.015Z,19.64
2022-08-05T03:20:22.236Z,19.68
2022-08-05T03:22:50.610Z,19.65
2022-08-05T03:25:33.788Z,19.58
2022-08-05T03:28:10.623Z,19.56
2022-08-05T03:30:41.054Z,19.60
2022-08-05T03:33:09.221Z,19.57
2022-08-05T03:35:40.454Z,19.51
2022-08-05T03:38:08.003Z,19.49
2022-08-05T03:40:34.527Z,19.55
2022-08-05T03:43:59.017Z,19.57
2022-08-05T03:45:57.931Z,19.59
2022-08-05T03:48:29.926Z,19.59
2022-08-05T03:52:37.773Z,19.54
2022-08-05T03:55:53.611Z,19.57
2022-08-05T03:57:16.751Z,19.53
2022-08-05T04:00:03.365Z,19.45
2022-08-05T04:02:38.813Z,19.47
2022-08-05T04:05:13.066Z,19.47
2022-08-05T04:07:51.438Z,19.47
2022-08-05T04:10:30.951Z,19.48
2022-08-05T04:13:03.386Z,19.48
2022-08-05T04:15:33.313Z,19.38
2022-08-05T04:18:09.847Z,19.30
2022-08-05T04:20:38.600Z,19.35
2022-08-05T04:23:12.594Z,19.29
2022-08-05T04:25:57.140Z,19.25
2022-08-05T04:28:30.556Z,19.31
2022-08-05T04:31:01.064Z,19.13
2022-08-05T04:34:17.991Z,19.14
2022-08-05T04:36:44.786Z,19.17
2022-08-05T04:39:01.997Z,19.13
2022-08-05T04:41:36.641Z,19.13
2022-08-05T04:44:09.375Z,19.16
2022-08-05T04:46:37.610Z,19.13
2022-08-05T04:49:05.613Z,19.09
2022-08-05T04:51:38.928Z,19.06
2022-08-05T04:54:05.619Z,19.04
2022-08-05T04:56:37.250Z,18.96
2022-08-05T04:59:21.944Z,18.91
2022-08-05T05:02:07.399Z,18.96
2022-08-05T05:04:44.136Z,18.91
2022-08-05T05:07:15.946Z,18.90
2022-08-05T05:09:44.080Z,18.90
2022-08-05T05:12:11.590Z,18.93
2022-08-05T05:14:49.396Z,18.85
2022-08-05T05:17:23.441Z,18.85
2022-08-05T05:19:53.939Z,18.86
2022-08-05T05:22:22.840Z,18.85
2022-08-05T05:24:58.399Z,18.73
2022-08-05T05:27:44.656Z,18.60
2022-08-05T05:30:29.136Z,18.61
2022-08-05T05:32:57.018Z,18.70
2022-08-05T05:35:27.782Z,18.78
2022-08-05T05:37:59.744Z,18.74
2022-08-05T05:40:29.557Z,18.77
2022-08-05T05:42:57.451Z,18.78
2022-08-05T05:45:24.694Z,18.86
2022-08-05T05:48:06.761Z,18.92
2022-08-05T05:50:41.041Z,18.95
2022-08-05T05:53:22.223Z,19.04
2022-08-05T05:55:52.387Z,19.11
2022-08-05T05:58:30.374Z,19.15
2022-08-05T06:01:12.682Z,19.07
2022-08-05T06:04:00.416Z,19.14
2022-08-05T06:06:31.301Z,19.26
2022-08-05T06:09:00.411Z,19.29
2022-08-05T06:11:28.947Z,19.34
2022-08-05T06:13:56.112Z,19.52
2022-08-05T06:16:31.806Z,19.62
2022-08-05T06:19:05.848Z,19.72
2022-08-05T06:21:36.769Z,19.86
2022-08-05T06:24:04.529Z,19.95
2022-08-05T06:26:33.964Z,19.94
2022-08-05T06:29:06.057Z,19.92
2022-08-05T06:31:48.826Z,19.99
2022-08-05T06:34:17.449Z,20.12
2022-08-05T06:36:56.802Z,20.24
2022-08-05T06:39:24.538Z,20.34
2022-08-05T06:41:53.530Z,20.23
2022-08-05T06:44:22.003Z,20.13
2022-08-05T06:46:50.942Z,20.11
2022-08-05T06:49:18.903Z,20.06
2022-08-05T06:51:48.358Z,20.07
2022-08-05T06:54:19.025Z,20.21
2022-08-05T06:56:55.171Z,20.30
2022-08-05T06:59:38.540Z,20.39
2022-08-05T07:02:05.675Z,20.36
2022-08-05T07:04:32.137Z,20.47
2022-08-05T07:06:59.727Z,20.50
2022-08-05T07:09:26.246Z,20.53
2022-08-05T07:12:00.518Z,20.80
2022-08-05T07:14:46.118Z,21.05
2022-08-05T07:17:59.948Z,21.27
2022-08-05T07:22:47.739Z,20.90
2022-08-05T07:25:54.287Z,20.60
2022-08-05T07:28:05.792Z,20.64
2022-08-05T07:30:38.884Z,20.59
2022-08-05T07:33:15.647Z,20.56
2022-08-05T07:36:05.059Z,20.63
2022-08-05T07:38:34.237Z,20.60
2022-08-05T07:41:34.981Z,20.64
2022-08-05T07:43:56.073Z,20.67
2022-08-05T07:46:25.055Z,20.84
2022-08-05T07:49:02.006Z,20.84
2022-08-05T07:51:37.174Z,20.80
2022-08-05T07:54:10.171Z,20.85
2022-08-05T07:57:01.988Z,21.00
2022-08-05T07:59:38.871Z,20.84
2022-08-05T08:02:16.996Z,21.07
2022-08-05T08:04:48.771Z,21.15
2022-08-05T08:07:17.900Z,21.31
2022-08-05T08:09:45.800Z,21.45
2022-08-05T08:12:37.053Z,21.49
2022-08-05T08:15:03.720Z,21.71
2022-08-05T08:17:32.429Z,21.80
2022-08-05T08:20:42.833Z,22.04
2022-08-05T08:22:53.538Z,22.13
2022-08-05T08:25:26.822Z,22.21
2022-08-05T08:28:18.438Z,22.26
2022-08-05T08:30:56.072Z,22.31
2022-08-05T08:33:23.839Z,22.46
2022-08-05T08:35:55.986Z,22.46
2022-08-05T08:38:35.969Z,22.49
2022-08-05T08:41:09.978Z,22.99
2022-08-05T08:45:18.935Z,22.96
2022-08-05T08:46:28.024Z,23.20
2022-08-05T08:49:06.415Z,23.17
2022-08-05T08:52:03.412Z,23.00
2022-08-05T08:54:33.178Z,22.93
2022-08-05T08:57:00.586Z,23.07
2022-08-05T08:59:33.583Z,22.86
2022-08-05T09:02:04.387Z,22.78
2022-08-05T09:04:58.188Z,22.67
2022-08-05T09:07:28.410Z,22.52
2022-08-05T09:09:56.310Z,22.84
2022-08-05T09:12:27.407Z,23.09
2022-08-05T09:14:59.638Z,23.22
2022-08-05T09:17:42.238Z,23.39
2022-08-05T09:20:13.461Z,23.44
2022-08-05T09:23:07.755Z,23.46
2022-08-05T09:26:02.193Z,23.06
2022-08-05T09:28:31.842Z,23.24
2022-08-05T09:31:43.534Z,23.44
2022-08-05T09:34:01.232Z,23.85
2022-08-05T09:36:54.655Z,24.00
2022-08-05T09:39:27.644Z,23.76
2022-08-05T09:42:08.591Z,23.49
2022-08-05T09:44:46.012Z,23.23
2022-08-05T09:47:17.996Z,23.40
2022-08-05T09:50:01.566Z,23.19
2022-08-05T09:52:34.629Z,22.73
2022-08-05T09:55:56.370Z,22.60
2022-08-05T09:57:58.741Z,22.49
2022-08-05T10:00:27.817Z,22.47
2022-08-05T10:02:58.371Z,22.64
2022-08-05T10:05:29.342Z,22.72
2022-08-05T10:08:36.481Z,22.97
2022-08-05T10:10:54.162Z,22.93
2022-08-05T10:13:47.313Z,22.95
2022-08-05T10:16:41.561Z,22.84
2022-08-05T10:19:11.855Z,22.92
2022-08-05T10:21:40.303Z,23.03
2022-08-05T10:24:10.875Z,23.26
2022-08-05T10:26:51.406Z,23.52
2022-08-05T10:29:24.045Z,23.53
2022-08-05T10:33:01.059Z,23.32
2022-08-05T10:35:00.787Z,23.33
2022-08-05T10:37:37.544Z,23.04
2022-08-05T10:40:35.533Z,22.87
2022-08-05T10:43:17.590Z,22.86
2022-08-05T10:46:06.257Z,22.94
2022-08-05T10:48:57.055Z,22.99
2022-08-05T10:51:28.748Z,23.05
2022-08-05T10:53:58.347Z,23.20
2022-08-05T10:56:29.820Z,23.45
2022-08-05T10:58:56.242Z,23.35
2022-08-05T11:01:55.081Z,23.45
2022-08-05T11:04:26.372Z,23.25
2022-08-05T11:07:04.545Z,23.35
2022-08-05T11:09:47.850Z,23.13
2022-08-05T11:12:26.511Z,23.15
2022-08-05T11:16:00.552Z,23.15
2022-08-05T11:18:29.981Z,23.19
2022-08-05T11:20:59.858Z,23.39
2022-08-05T11:24:04.559Z,23.50
2022-08-05T11:26:38.014Z,23.42
2022-08-05T11:29:14.040Z,23.43
2022-08-05T11:31:56.417Z,23.40
2022-08-05T11:34:50.900Z,23.18
2022-08-05T11:38:30.351Z,23.13
2022-08-05T11:41:00.617Z,23.15
2022-08-05T11:44:01.013Z,23.14
2022-08-05T11:46:32.561Z,23.25
2022-08-05T11:49:00.924Z,23.13
2022-08-05T11:51:43.616Z,23.06
2022-08-05T11:54:24.440Z,23.10
2022-08-05T11:57:02.181Z,22.99
2022-08-05T11:59:35.969Z,22.81
2022-08-05T12:02:23.744Z,22.61
2022-08-05T12:04:59.204Z,22.69
2022-08-05T12:08:08.931Z,22.71
2022-08-05T12:10:19.873Z,22.92
2022-08-05T12:12:59.941Z,23.01
2022-08-05T12:15:38.407Z,23.40
2022-08-05T12:18:10.986Z,23.36
2022-08-05T12:20:38.815Z,23.16
2022-08-05T12:23:10.488Z,22.97
2022-08-05T12:26:09.175Z,23.09
2022-08-05T12:28:38.199Z,23.09
2022-08-05T12:31:05.567Z,23.26
2022-08-05T12:33:36.360Z,23.61
2022-08-05T12:36:07.864Z,23.91
2022-08-05T12:38:38.264Z,23.91
2022-08-05T12:41:14.041Z,23.48
2022-08-05T12:44:02.875Z,23.45
2022-08-05T12:46:31.233Z,23.48
2022-08-05T12:48:58.056Z,23.56
2022-08-05T12:52:12.755Z,23.57
2022-08-05T12:54:23.568Z,23.42
2022-08-05T12:56:55.982Z,23.35
2022-08-05T12:59:27.598Z,23.28
2022-08-05T13:02:12.739Z,23.09
2022-08-05T13:04:52.459Z,23.29
2022-08-05T13:07:54.772Z,23.29
2022-08-05T13:10:14.593Z,23.54
2022-08-05T13:12:57.749Z,23.57
2022-08-05T13:15:41.709Z,23.67
2022-08-05T13:18:19.460Z,23.36
2022-08-05T13:20:49.145Z,23.17
2022-08-05T13:23:18.062Z,23.28
2022-08-05T13:25:58.599Z,23.31
2022-08-05T13:28:26.756Z,23.50
2022-08-05T13:30:53.609Z,23.67
2022-08-05T13:34:24.676Z,23.68
2022-08-05T13:36:09.142Z,23.36
2022-08-05T13:38:42.080Z,23.37
2022-08-05T13:41:09.440Z,23.48
2022-08-05T13:43:44.989Z,23.43
2022-08-05T13:49:12.587Z,23.14
2022-08-05T13:51:41.813Z,23.00
2022-08-05T13:54:15.436Z,22.80
2022-08-05T13:56:45.536Z,22.71
2022-08-05T13:59:24.235Z,22.94
2022-08-05T14:01:58.016Z,23.01
2022-08-05T14:04:50.154Z,22.95
2022-08-05T14:07:59.705Z,22.70
2022-08-05T14:10:28.012Z,22.67
2022-08-05T14:12:55.920Z,22.50
2022-08-05T14:16:05.605Z,22.45
2022-08-05T14:18:14.621Z,22.43
2022-08-05T14:20:47.306Z,22.64
2022-08-05T14:23:15.336Z,22.79
2022-08-05T14:25:53.806Z,22.96
2022-08-05T14:28:26.292Z,23.15
2022-08-05T14:30:54.202Z,23.27
2022-08-05T14:33:22.619Z,23.32
2022-08-05T14:35:51.510Z,23.48
2022-08-05T14:38:32.760Z,23.27
2022-08-05T14:41:06.931Z,22.93
2022-08-05T14:44:02.712Z,22.88
2022-08-05T14:46:28.031Z,22.68
2022-08-05T14:48:56.666Z,22.58
2022-08-05T14:51:23.930Z,22.68
2022-08-05T14:54:25.860Z,22.70
2022-08-05T14:56:44.064Z,22.78
2022-08-05T14:59:13.122Z,22.80
2022-08-05T15:01:48.573Z,22.83
2022-08-05T15:04:17.128Z,22.68
2022-08-05T15:06:49.031Z,22.65
2022-08-05T15:09:16.558Z,22.71
2022-08-05T15:12:04.046Z,22.74
2022-08-05T15:14:34.546Z,22.67
2022-08-05T15:17:09.919Z,22.72
2022-08-05T15:19:55.965Z,22.72
2022-08-05T15:22:26.648Z,22.54
2022-08-05T15:24:54.895Z,22.36
2022-08-05T15:27:21.345Z,22.35
2022-08-05T15:29:47.817Z,22.40
2022-08-05T15:32:16.449Z,22.34
2022-08-05T15:34:43.172Z,22.46
2022-08-05T15:38:08.722Z,22.51
2022-08-05T15:41:02.442Z,22.55
2022-08-05T15:42:55.072Z,22.59
2022-08-05T15:45:37.871Z,22.46
2022-08-05T15:48:05.508Z,22.27
2022-08-05T15:50:33.418Z,22.10
2022-08-05T15:53:04.089Z,21.99
2022-08-05T15:56:02.397Z,21.84
2022-08-05T15:58:19.200Z,21.86
2022-08-05T16:00:57.156Z,21.91
2022-08-05T16:03:36.250Z,21.85
2022-08-05T16:06:08.612Z,21.69
2022-08-05T16:08:38.604Z,21.62
2022-08-05T16:11:05.340Z,21.56
2022-08-05T16:13:34.671Z,21.49
2022-08-05T16:16:03.410Z,21.50
2022-08-05T16:18:30.625Z,21.26
2022-08-05T16:20:57.370Z,21.18
2022-08-05T16:23:24.213Z,21.10
2022-08-05T16:25:55.816Z,21.07
2022-08-05T16:28:22.461Z,21.10
2022-08-05T16:30:52.074Z,21.18
2022-08-05T16:33:19.414Z,21.19
2022-08-05T16:35:49.872Z,21.10
2022-08-05T16:38:25.709Z,20.95
2022-08-05T16:41:00.194Z,20.91
2022-08-05T16:43:32.524Z,21.06
2022-08-05T16:46:07.795Z,21.21
2022-08-05T16:48:39.536Z,21.19
2022-08-05T16:51:09.186Z,20.84
2022-08-05T16:54:05.178Z,20.66
2022-08-05T16:56:26.586Z,20.67
2022-08-05T16:58:54.002Z,20.71
2022-08-05T17:01:20.619Z,20.61
2022-08-05T17:03:47.418Z,20.46
2022-08-05T17:06:16.605Z,20.46
2022-08-05T17:08:52.942Z,20.36
2022-08-05T17:11:23.833Z,20.22
2022-08-05T17:14:05.199Z,20.25
2022-08-05T17:16:37.674Z,20.29
2022-08-05T17:19:07.083Z,20.36
2022-08-05T17:21:35.976Z,20.31
2022-08-05T17:24:19.458Z,20.33
2022-08-05T17:26:55.768Z,20.37
2022-08-05T17:29:33.647Z,20.35
2022-08-05T17:32:11.892Z,20.12
2022-08-05T17:34:43.475Z,19.97
2022-08-05T17:37:40.574Z,19.98
2022-08-05T17:39:59.753Z,19.96
2022-08-05T17:42:30.107Z,19.90
2022-08-05T17:44:59.478Z,19.79
2022-08-05T17:47:26.984Z,19.77
2022-08-05T17:50:03.826Z,19.77
2022-08-05T17:52:52.592Z,19.68
2022-08-05T17:55:22.262Z,19.61
2022-08-05T17:57:50.109Z,19.65
2022-08-05T18:00:17.451Z,19.57
2022-08-05T18:02:46.951Z,19.51
2022-08-05T18:05:17.042Z,19.45
2022-08-05T18:07:44.664Z,19.47
2022-08-05T18:10:14.030Z,19.48
2022-08-05T18:12:47.574Z,19.37
2022-08-05T18:15:14.121Z,19.32
2022-08-05T18:18:00.559Z,19.30
2022-08-05T18:20:29.238Z,19.27
2022-08-05T18:22:58.653Z,19.17
2022-08-05T18:25:33.039Z,19.07
2022-08-05T18:28:04.754Z,19.01
2022-08-05T18:30:33.099Z,19.00
2022-08-05T18:33:01.241Z,19.02
2022-08-05T18:36:01.126Z,19.04
2022-08-05T18:38:16.505Z,19.04
2022-08-05T18:41:53.796Z,19.03
2022-08-05T18:43:38.282Z,18.91
2022-08-05T18:46:10.041Z,18.88
2022-08-05T18:48:41.632Z,18.82
2022-08-05T18:52:04.745Z,18.80
2022-08-05T18:54:14.426Z,18.81
2022-08-05T18:56:41.830Z,18.76
2022-08-05T18:59:42.694Z,18.65
2022-08-05T19:02:04.894Z,18.56
2022-08-05T19:05:03.235Z,18.54
2022-08-05T19:07:46.402Z,18.48
2022-08-05T19:10:14.703Z,18.44
2022-08-05T19:12:41.416Z,18.39
2022-08-05T19:15:10.659Z,18.25
2022-08-05T19:17:59.371Z,18.19
2022-08-05T19:20:35.641Z,18.19
2022-08-05T19:23:03.209Z,18.25
2022-08-05T19:25:42.032Z,18.17
2022-08-05T19:28:10.266Z,18.19
2022-08-05T19:30:36.835Z,18.13
2022-08-05T19:33:04.705Z,18.12
2022-08-05T19:35:56.094Z,18.15
2022-08-05T19:38:24.082Z,18.08
2022-08-05T19:40:53.447Z,18.07
2022-08-05T19:44:04.111Z,18.08
2022-08-05T19:46:06.536Z,18.09
2022-08-05T19:48:43.983Z,17.99
2022-08-05T19:52:04.588Z,17.96
2022-08-05T19:54:15.508Z,17.89
2022-08-05T19:56:54.327Z,17.89
2022-08-05T19:59:51.649Z,17.85
2022-08-05T20:02:07.367Z,17.78
2022-08-05T20:04:33.870Z,17.73
2022-08-05T20:07:00.445Z,17.65
2022-08-05T20:09:28.532Z,17.64
2022-08-05T20:12:15.160Z,17.55
2022-08-05T20:14:41.862Z,17.44
2022-08-05T20:17:09.921Z,17.39
2022-08-05T20:19:41.357Z,17.26
2022-08-05T20:22:09.693Z,17.25
2022-08-05T20:24:36.451Z,17.13
2022-08-05T20:27:04.734Z,16.98
2022-08-05T20:29:37.998Z,16.91
2022-08-05T20:32:06.545Z,16.86
2022-08-05T20:34:33.107Z,16.73
2022-08-05T20:37:00.802Z,16.67
2022-08-05T20:39:35.777Z,16.63
2022-08-05T20:42:04.771Z,16.45
2022-08-05T20:44:33.071Z,16.33
2022-08-05T20:47:07.642Z,16.31
2022-08-05T20:49:39.554Z,16.26
2022-08-05T20:52:07.390Z,16.21
2022-08-05T20:54:59.866Z,16.11
2022-08-05T20:57:42.610Z,16.06
2022-08-05T21:00:40.310Z,16.03
2022-08-05T21:03:01.199Z,15.95
2022-08-05T21:05:37.969Z,15.88
2022-08-05T21:08:14.943Z,15.84
2022-08-05T21:10:48.731Z,15.83
2022-08-05T21:13:20.263Z,15.79
2022-08-05T21:15:54.735Z,15.77
2022-08-05T21:18:23.365Z,15.61
2022-08-05T21:20:50.142Z,15.48
2022-08-05T21:23:16.619Z,15.42
2022-08-05T21:25:44.575Z,15.33
2022-08-05T21:28:12.080Z,15.29
2022-08-05T21:30:40.121Z,15.29
2022-08-05T21:33:22.100Z,15.33
2022-08-05T21:35:55.984Z,15.26
2022-08-05T21:38:27.697Z,15.21
2022-08-05T21:40:54.366Z,15.17
2022-08-05T21:43:24.059Z,15.09
2022-08-05T21:45:57.952Z,15.05
2022-08-05T21:48:27.886Z,15.02
2022-08-05T21:50:54.994Z,15.03
2022-08-05T21:53:23.251Z,15.04
2022-08-05T21:56:06.069Z,14.95
2022-08-05T21:58:42.473Z,14.85
2022-08-05T22:01:25.010Z,14.73
2022-08-05T22:03:53.624Z,14.68
2022-08-05T22:06:35.263Z,14.52
2022-08-05T22:09:13.847Z,14.45
2022-08-05T22:11:42.169Z,14.45
2022-08-05T22:14:33.461Z,14.50
2022-08-05T22:17:00.212Z,14.55
2022-08-05T22:20:01.963Z,14.54
2022-08-05T22:22:16.547Z,14.36
2022-08-05T22:25:18.034Z,14.12
2022-08-05T22:28:09.658Z,13.99
2022-08-05T22:30:44.114Z,14.02
2022-08-05T22:33:56.996Z,13.89
2022-08-05T22:36:10.084Z,13.68
2022-08-05T22:38:36.630Z,13.71
2022-08-05T22:41:09.554Z,13.70
2022-08-05T22:43:37.995Z,13.74
2022-08-05T22:46:12.201Z,13.79
2022-08-05T22:48:40.736Z,13.82
2022-08-05T22:51:07.939Z,13.83
2022-08-05T22:53:42.308Z,13.83
2022-08-05T22:56:09.885Z,13.74
2022-08-05T22:58:36.619Z,13.69
2022-08-05T23:01:03.143Z,13.63
2022-08-05T23:03:57.809Z,13.61
2022-08-05T23:06:18.890Z,13.45
2022-08-05T23:08:45.610Z,13.34
2022-08-05T23:11:18.618Z,13.30
2022-08-05T23:13:45.337Z,13.27
2022-08-05T23:16:33.226Z,13.32
2022-08-05T23:19:01.022Z,13.38
2022-08-05T23:21:42.528Z,13.42
2022-08-05T23:24:14.394Z,13.41
2022-08-05T23:26:41.766Z,13.18
2022-08-05T23:29:10.741Z,13.11
2022-08-05T23:31:42.413Z,13.01
2022-08-05T23:34:08.989Z,12.98
2022-08-05T23:36:39.826Z,12.94
2022-08-05T23:39:17.461Z,13.05
2022-08-05T23:41:50.674Z,13.14
2022-08-05T23:44:17.329Z,13.16
2022-08-05T23:46:46.447Z,13.12
2022-08-05T23:49:16.036Z,13.10
2022-08-05T23:52:02.702Z,13.06
2022-08-05T23:54:36.425Z,12.92
2022-08-05T23:57:06.605Z,12.71
